sensor_id;sensor_type;location;lat;lon;timestamp;pressure;altitude;pressure_sealevel;temperature;humidity
4392;BME280;2210;51.938;8.488;2023-08-24T06:58:00;100622.44;;;17.58;100.00
4392;BME280;2210;51.938;8.488;2023-08-24T07:02:03;100623.78;;;17.66;100.00
4392;BME280;2210;51.938;8.488;2023-08-24T07:06:10;100605.13;;;17.72;100.00
4392;BME280;2210;51.938;8.488;2023-08-24T07:10:13;100600.34;;;17.82;100.00
4392;BME280;2210;51.938;8.488;2023-08-24T07:14:19;100589.97;;;17.98;100.00
4392;BME280;2210;51.938;8.488;2023-08-24T07:18:23;100581.63;;;18.43;100.00
4392;BME280;2210;51.938;8.488;2023-08-24T07:22:23;100573.50;;;18.86;100.00
4392;BME280;2210;51.938;8.488;2023-08-24T07:26:26;100574.94;;;19.18;100.00
4392;BME280;2210;51.938;8.488;2023-08-24T07:30:31;100572.56;;;19.31;100.00
4392;BME280;2210;51.938;8.488;2023-08-24T07:34:31;100565.78;;;19.61;100.00
4392;BME280;2210;51.938;8.488;2023-08-24T07:38:31;100563.41;;;19.98;100.00
4392;BME280;2210;51.938;8.488;2023-08-24T07:42:50;100556.03;;;20.07;100.00
4392;BME280;2210;51.938;8.488;2023-08-24T07:47:02;100559.22;;;20.38;100.00
4392;BME280;2210;51.938;8.488;2023-08-24T07:51:14;100558.81;;;20.64;100.00
4392;BME280;2210;51.938;8.488;2023-08-24T07:55:18;100564.66;;;20.68;100.00
4392;BME280;2210;51.938;8.488;2023-08-24T07:59:24;100565.66;;;20.77;100.00
4392;BME280;2210;51.938;8.488;2023-08-24T08:03:25;100568.72;;;20.95;100.00
4392;BME280;2210;51.938;8.488;2023-08-24T08:07:28;100570.06;;;21.30;100.00
4392;BME280;2210;51.938;8.488;2023-08-24T08:11:28;100575.97;;;21.29;99.05
4392;BME280;2210;51.938;8.488;2023-08-24T08:15:32;100574.00;;;21.43;97.92
4392;BME280;2210;51.938;8.488;2023-08-24T08:19:32;100565.53;;;21.62;98.57
4392;BME280;2210;51.938;8.488;2023-08-24T08:23:41;100563.25;;;21.78;97.67
4392;BME280;2210;51.938;8.488;2023-08-24T08:27:42;100572.81;;;22.05;97.44
4392;BME280;2210;51.938;8.488;2023-08-24T08:31:45;100563.09;;;22.25;93.29
4392;BME280;2210;51.938;8.488;2023-08-24T08:35:46;100556.53;;;22.30;97.18
4392;BME280;2210;51.938;8.488;2023-08-24T08:39:52;100549.56;;;22.64;94.40
4392;BME280;2210;51.938;8.488;2023-08-24T08:43:52;100562.25;;;22.75;93.42
4392;BME280;2210;51.938;8.488;2023-08-24T08:47:57;100569.13;;;22.92;89.97
4392;BME280;2210;51.938;8.488;2023-08-24T08:52:02;100561.25;;;23.02;89.42
4392;BME280;2210;51.938;8.488;2023-08-24T08:56:07;100542.34;;;23.17;87.45
4392;BME280;2210;51.938;8.488;2023-08-24T09:00:10;100551.81;;;23.52;82.71
4392;BME280;2210;51.938;8.488;2023-08-24T09:04:11;100539.88;;;23.55;83.44
4392;BME280;2210;51.938;8.488;2023-08-24T09:08:11;100530.56;;;23.46;82.99
4392;BME280;2210;51.938;8.488;2023-08-24T09:12:12;100517.09;;;23.66;78.32
4392;BME280;2210;51.938;8.488;2023-08-24T09:16:12;100503.84;;;23.75;75.13
4392;BME280;2210;51.938;8.488;2023-08-24T09:20:27;100501.06;;;23.84;74.68
4392;BME280;2210;51.938;8.488;2023-08-24T09:24:30;100481.06;;;24.03;77.62
4392;BME280;2210;51.938;8.488;2023-08-24T09:28:44;100472.94;;;23.93;77.59
4392;BME280;2210;51.938;8.488;2023-08-24T09:32:48;100469.81;;;24.03;72.14
4392;BME280;2210;51.938;8.488;2023-08-24T09:36:51;100471.97;;;24.32;80.75
4392;BME280;2210;51.938;8.488;2023-08-24T09:40:58;100473.81;;;24.28;78.32
4392;BME280;2210;51.938;8.488;2023-08-24T09:45:02;100466.84;;;24.26;74.28
4392;BME280;2210;51.938;8.488;2023-08-24T09:49:05;100472.63;;;24.38;75.47
4392;BME280;2210;51.938;8.488;2023-08-24T09:53:33;100461.00;;;24.31;73.24
4392;BME280;2210;51.938;8.488;2023-08-24T09:57:45;100467.66;;;24.26;77.55
4392;BME280;2210;51.938;8.488;2023-08-24T10:01:47;100456.03;;;24.63;71.96
4392;BME280;2210;51.938;8.488;2023-08-24T10:05:58;100461.00;;;24.74;74.79
4392;BME280;2210;51.938;8.488;2023-08-24T10:10:03;100445.66;;;24.93;69.39
4392;BME280;2210;51.938;8.488;2023-08-24T10:14:18;100438.22;;;24.88;69.19
4392;BME280;2210;51.938;8.488;2023-08-24T10:18:19;100425.97;;;24.84;71.17
4392;BME280;2210;51.938;8.488;2023-08-24T10:22:23;100400.59;;;24.84;68.30
4392;BME280;2210;51.938;8.488;2023-08-24T10:26:27;100406.53;;;24.91;70.23
4392;BME280;2210;51.938;8.488;2023-08-24T10:30:30;100401.34;;;25.02;70.67
4392;BME280;2210;51.938;8.488;2023-08-24T10:34:31;100397.91;;;25.27;66.95
4392;BME280;2210;51.938;8.488;2023-08-24T10:38:34;100407.91;;;25.15;67.43
4392;BME280;2210;51.938;8.488;2023-08-24T10:42:47;100410.69;;;25.24;68.24
4392;BME280;2210;51.938;8.488;2023-08-24T10:47:08;100408.22;;;25.22;68.61
4392;BME280;2210;51.938;8.488;2023-08-24T10:55:26;100427.09;;;25.61;64.53
4392;BME280;2210;51.938;8.488;2023-08-24T10:59:37;100415.97;;;25.64;64.03
4392;BME280;2210;51.938;8.488;2023-08-24T11:03:39;100409.78;;;25.71;63.37
4392;BME280;2210;51.938;8.488;2023-08-24T11:07:57;100379.94;;;25.82;63.18
4392;BME280;2210;51.938;8.488;2023-08-24T11:12:04;100364.44;;;25.88;60.84
4392;BME280;2210;51.938;8.488;2023-08-24T11:16:05;100357.91;;;25.75;62.58
4392;BME280;2210;51.938;8.488;2023-08-24T11:20:16;100358.19;;;26.04;57.21
4392;BME280;2210;51.938;8.488;2023-08-24T11:24:20;100347.69;;;26.38;57.74
4392;BME280;2210;51.938;8.488;2023-08-24T11:28:20;100334.31;;;26.59;55.64
4392;BME280;2210;51.938;8.488;2023-08-24T11:32:21;100333.34;;;26.43;55.19
4392;BME280;2210;51.938;8.488;2023-08-24T11:36:30;100326.53;;;26.44;57.75
4392;BME280;2210;51.938;8.488;2023-08-24T11:40:32;100328.63;;;26.35;57.60
4392;BME280;2210;51.938;8.488;2023-08-24T11:44:51;100313.63;;;26.34;54.92
4392;BME280;2210;51.938;8.488;2023-08-24T11:48:52;100295.59;;;26.72;55.14
4392;BME280;2210;51.938;8.488;2023-08-24T11:52:52;100283.19;;;26.65;54.70
4392;BME280;2210;51.938;8.488;2023-08-24T11:56:53;100282.97;;;26.82;55.65
4392;BME280;2210;51.938;8.488;2023-08-24T12:00:57;100270.94;;;26.61;55.57
4392;BME280;2210;51.938;8.488;2023-08-24T12:05:07;100271.88;;;26.52;55.63
4392;BME280;2210;51.938;8.488;2023-08-24T12:09:07;100276.47;;;26.69;57.23
4392;BME280;2210;51.938;8.488;2023-08-24T12:13:08;100269.66;;;26.70;56.46
4392;BME280;2210;51.938;8.488;2023-08-24T12:17:10;100261.16;;;26.95;54.69
4392;BME280;2210;51.938;8.488;2023-08-24T12:21:11;100258.13;;;26.75;56.36
4392;BME280;2210;51.938;8.488;2023-08-24T12:25:28;100268.25;;;26.89;56.46
4392;BME280;2210;51.938;8.488;2023-08-24T12:29:29;100264.34;;;26.69;57.29
4392;BME280;2210;51.938;8.488;2023-08-24T12:33:34;100247.75;;;26.80;56.75
4392;BME280;2210;51.938;8.488;2023-08-24T12:37:35;100253.28;;;26.76;61.71
4392;BME280;2210;51.938;8.488;2023-08-24T12:41:39;100252.56;;;26.91;58.88
4392;BME280;2210;51.938;8.488;2023-08-24T12:45:40;100248.81;;;26.87;59.60
4392;BME280;2210;51.938;8.488;2023-08-24T12:49:41;100252.53;;;27.04;59.85
4392;BME280;2210;51.938;8.488;2023-08-24T12:53:41;100242.44;;;26.90;60.31
4392;BME280;2210;51.938;8.488;2023-08-24T14:03:09;100175.97;;;26.72;62.83
4392;BME280;2210;51.938;8.488;2023-08-24T14:07:18;100172.19;;;26.80;63.87
4392;BME280;2210;51.938;8.488;2023-08-24T14:11:19;100157.59;;;26.66;65.82
4392;BME280;2210;51.938;8.488;2023-08-24T14:15:25;100154.19;;;26.72;64.23
4392;BME280;2210;51.938;8.488;2023-08-24T14:19:32;100159.13;;;26.63;65.15
4392;BME280;2210;51.938;8.488;2023-08-24T14:23:32;100165.25;;;26.53;70.61
4392;BME280;2210;51.938;8.488;2023-08-24T14:27:35;100180.69;;;26.31;73.02
4392;BME280;2210;51.938;8.488;2023-08-24T14:31:36;100171.28;;;26.14;71.64
4392;BME280;2210;51.938;8.488;2023-08-24T14:35:54;100177.50;;;26.07;71.96
4392;BME280;2210;51.938;8.488;2023-08-24T14:39:57;100166.75;;;26.01;74.76
4392;BME280;2210;51.938;8.488;2023-08-24T14:44:07;100137.59;;;26.09;69.90
4392;BME280;2210;51.938;8.488;2023-08-24T14:48:17;100136.44;;;26.10;71.69
4392;BME280;2210;51.938;8.488;2023-08-24T14:52:20;100141.69;;;25.99;74.77
4392;BME280;2210;51.938;8.488;2023-08-24T14:56:23;100133.06;;;25.83;83.97
4392;BME280;2210;51.938;8.488;2023-08-24T15:00:24;100142.91;;;25.65;86.92
4392;BME280;2210;51.938;8.488;2023-08-24T15:04:27;100149.19;;;25.37;92.79
4392;BME280;2210;51.938;8.488;2023-08-24T15:08:31;100135.91;;;25.16;94.54
4392;BME280;2210;51.938;8.488;2023-08-24T15:12:35;100136.75;;;24.96;96.76
4392;BME280;2210;51.938;8.488;2023-08-24T15:16:38;100123.19;;;25.10;99.43
4392;BME280;2210;51.938;8.488;2023-08-24T15:20:44;100119.25;;;25.23;99.90
4392;BME280;2210;51.938;8.488;2023-08-24T15:24:45;100106.19;;;25.52;100.00
4392;BME280;2210;51.938;8.488;2023-08-24T15:29:08;100101.81;;;25.42;100.00
4392;BME280;2210;51.938;8.488;2023-08-24T15:33:09;100083.53;;;25.28;98.34
4392;BME280;2210;51.938;8.488;2023-08-24T15:37:19;100074.09;;;25.23;100.00
4392;BME280;2210;51.938;8.488;2023-08-24T15:41:22;100080.53;;;25.45;100.00
4392;BME280;2210;51.938;8.488;2023-08-24T15:45:24;100092.69;;;25.24;100.00
4392;BME280;2210;51.938;8.488;2023-08-24T15:49:27;100090.44;;;25.18;100.00
4392;BME280;2210;51.938;8.488;2023-08-24T15:53:32;100093.16;;;25.27;100.00
4392;BME280;2210;51.938;8.488;2023-08-24T15:57:35;100092.19;;;25.22;96.08
4392;BME280;2210;51.938;8.488;2023-08-24T16:01:38;100103.91;;;25.12;93.75
4392;BME280;2210;51.938;8.488;2023-08-24T16:05:39;100102.03;;;25.16;94.86
4392;BME280;2210;51.938;8.488;2023-08-24T16:09:39;100090.81;;;25.29;96.19
4392;BME280;2210;51.938;8.488;2023-08-24T16:13:40;100091.50;;;25.25;100.00
4392;BME280;2210;51.938;8.488;2023-08-24T16:17:55;100095.28;;;25.30;100.00
4392;BME280;2210;51.938;8.488;2023-08-24T16:21:56;100091.59;;;25.17;100.00
4392;BME280;2210;51.938;8.488;2023-08-24T16:25:56;100086.97;;;25.12;100.00
4392;BME280;2210;51.938;8.488;2023-08-24T16:29:56;100089.91;;;25.03;100.00
4392;BME280;2210;51.938;8.488;2023-08-24T16:33:57;100092.91;;;25.19;100.00
4392;BME280;2210;51.938;8.488;2023-08-24T16:37:57;100091.03;;;25.23;100.00
4392;BME280;2210;51.938;8.488;2023-08-24T16:42:13;100090.28;;;25.14;100.00
4392;BME280;2210;51.938;8.488;2023-08-24T16:46:16;100084.31;;;25.16;100.00
4392;BME280;2210;51.938;8.488;2023-08-24T16:50:23;100076.66;;;25.16;100.00
4392;BME280;2210;51.938;8.488;2023-08-24T16:54:26;100064.16;;;25.05;100.00
4392;BME280;2210;51.938;8.488;2023-08-24T16:58:33;100069.00;;;25.04;100.00
4392;BME280;2210;51.938;8.488;2023-08-24T17:02:34;100069.25;;;25.12;100.00
4392;BME280;2210;51.938;8.488;2023-08-24T17:06:34;100058.16;;;25.06;96.70
4392;BME280;2210;51.938;8.488;2023-08-24T17:10:36;100054.53;;;25.06;92.61
4392;BME280;2210;51.938;8.488;2023-08-24T17:14:38;100051.22;;;25.04;90.53
4392;BME280;2210;51.938;8.488;2023-08-24T17:18:39;100049.81;;;24.98;86.40
4392;BME280;2210;51.938;8.488;2023-08-24T17:22:43;100042.25;;;24.89;84.29
4392;BME280;2210;51.938;8.488;2023-08-24T17:26:46;100036.84;;;24.84;82.65
4392;BME280;2210;51.938;8.488;2023-08-24T17:30:53;100022.94;;;24.79;82.48
4392;BME280;2210;51.938;8.488;2023-08-24T17:35:02;100017.06;;;24.72;79.51
4392;BME280;2210;51.938;8.488;2023-08-24T17:39:03;100014.44;;;24.67;79.76
4392;BME280;2210;51.938;8.488;2023-08-24T17:43:03;100016.47;;;24.57;80.88
4392;BME280;2210;51.938;8.488;2023-08-24T17:47:03;100018.69;;;24.52;81.86
4392;BME280;2210;51.938;8.488;2023-08-24T17:51:07;100027.84;;;24.49;81.79
4392;BME280;2210;51.938;8.488;2023-08-24T17:55:13;100024.41;;;24.43;82.54
4392;BME280;2210;51.938;8.488;2023-08-24T17:59:17;100018.97;;;24.38;84.37
4392;BME280;2210;51.938;8.488;2023-08-24T18:03:23;100013.72;;;24.28;86.52
4392;BME280;2210;51.938;8.488;2023-08-24T18:07:23;100008.22;;;24.10;88.28
4392;BME280;2210;51.938;8.488;2023-08-24T18:11:24;100014.69;;;24.11;89.16
4392;BME280;2210;51.938;8.488;2023-08-24T18:15:27;100016.88;;;24.05;88.22
4392;BME280;2210;51.938;8.488;2023-08-24T18:19:27;100000.13;;;24.08;84.83
4392;BME280;2210;51.938;8.488;2023-08-24T18:23:28;99980.06;;;24.10;85.71
4392;BME280;2210;51.938;8.488;2023-08-24T18:27:31;99988.31;;;24.15;84.77
4392;BME280;2210;51.938;8.488;2023-08-24T18:31:31;99997.66;;;24.07;87.28
4392;BME280;2210;51.938;8.488;2023-08-24T18:35:31;100000.31;;;24.03;86.31
4392;BME280;2210;51.938;8.488;2023-08-24T18:39:32;99999.50;;;24.03;86.65
4392;BME280;2210;51.938;8.488;2023-08-24T18:43:38;99992.72;;;24.04;87.37
4392;BME280;2210;51.938;8.488;2023-08-24T18:47:39;99997.75;;;23.89;89.40
4392;BME280;2210;51.938;8.488;2023-08-24T18:51:42;100011.88;;;23.81;89.70
4392;BME280;2210;51.938;8.488;2023-08-24T18:55:46;100007.44;;;23.71;91.85
4392;BME280;2210;51.938;8.488;2023-08-24T18:59:58;100006.78;;;23.74;91.02
4392;BME280;2210;51.938;8.488;2023-08-24T19:04:10;100011.13;;;23.63;90.65
4392;BME280;2210;51.938;8.488;2023-08-24T19:08:11;100007.66;;;23.66;89.46
4392;BME280;2210;51.938;8.488;2023-08-24T19:12:15;100013.28;;;23.66;89.05
4392;BME280;2210;51.938;8.488;2023-08-24T19:16:21;100032.81;;;23.62;90.66
4392;BME280;2210;51.938;8.488;2023-08-24T19:20:25;100047.75;;;23.45;92.23
4392;BME280;2210;51.938;8.488;2023-08-24T19:24:25;100053.59;;;23.40;92.55
4392;BME280;2210;51.938;8.488;2023-08-24T19:28:29;100055.41;;;23.45;93.12
4392;BME280;2210;51.938;8.488;2023-08-24T19:32:35;100033.91;;;23.31;91.79
4392;BME280;2210;51.938;8.488;2023-08-24T19:36:36;100020.66;;;23.32;92.13
4392;BME280;2210;51.938;8.488;2023-08-24T19:40:39;100004.13;;;23.30;92.50
4392;BME280;2210;51.938;8.488;2023-08-24T19:44:39;100009.63;;;23.27;92.17
4392;BME280;2210;51.938;8.488;2023-08-24T19:48:39;100007.81;;;23.22;93.28
4392;BME280;2210;51.938;8.488;2023-08-24T19:52:40;99990.78;;;23.18;93.49
4392;BME280;2210;51.938;8.488;2023-08-24T19:56:42;99993.09;;;23.16;94.83
4392;BME280;2210;51.938;8.488;2023-08-24T20:00:43;99977.09;;;22.99;98.43
4392;BME280;2210;51.938;8.488;2023-08-24T20:04:43;99976.28;;;22.81;100.00
4392;BME280;2210;51.938;8.488;2023-08-24T20:08:43;99965.56;;;22.74;99.21
4392;BME280;2210;51.938;8.488;2023-08-24T20:12:50;99961.75;;;22.70;100.00
4392;BME280;2210;51.938;8.488;2023-08-24T20:16:56;99959.66;;;22.59;100.00
4392;BME280;2210;51.938;8.488;2023-08-24T20:20:57;99943.31;;;22.52;100.00
4392;BME280;2210;51.938;8.488;2023-08-24T20:25:07;99943.47;;;22.47;100.00
4392;BME280;2210;51.938;8.488;2023-08-24T20:29:08;99937.34;;;22.45;100.00
4392;BME280;2210;51.938;8.488;2023-08-24T20:33:08;99934.56;;;22.36;100.00
4392;BME280;2210;51.938;8.488;2023-08-24T20:37:14;99935.19;;;22.24;100.00
4392;BME280;2210;51.938;8.488;2023-08-24T20:41:14;99929.56;;;22.06;100.00
4392;BME280;2210;51.938;8.488;2023-08-24T20:45:15;99942.75;;;21.97;100.00
4392;BME280;2210;51.938;8.488;2023-08-24T20:49:15;99948.06;;;21.90;100.00
4392;BME280;2210;51.938;8.488;2023-08-24T20:53:18;99945.56;;;21.80;100.00
4392;BME280;2210;51.938;8.488;2023-08-24T20:57:18;99943.88;;;21.70;100.00
4392;BME280;2210;51.938;8.488;2023-08-24T21:01:19;99948.50;;;21.66;100.00
4392;BME280;2210;51.938;8.488;2023-08-24T21:05:19;99939.59;;;21.64;100.00
4392;BME280;2210;51.938;8.488;2023-08-24T21:09:23;99933.47;;;21.62;100.00
4392;BME280;2210;51.938;8.488;2023-08-24T21:13:23;99927.63;;;21.41;100.00
4392;BME280;2210;51.938;8.488;2023-08-24T21:17:26;99923.63;;;21.33;100.00
4392;BME280;2210;51.938;8.488;2023-08-24T21:21:36;99933.34;;;21.27;100.00
4392;BME280;2210;51.938;8.488;2023-08-24T21:25:42;99937.44;;;21.20;100.00
4392;BME280;2210;51.938;8.488;2023-08-24T21:29:42;99933.78;;;21.11;100.00
4392;BME280;2210;51.938;8.488;2023-08-24T21:33:50;99933.91;;;21.06;100.00
4392;BME280;2210;51.938;8.488;2023-08-24T21:37:50;99927.03;;;21.12;100.00
4392;BME280;2210;51.938;8.488;2023-08-24T21:41:50;99926.16;;;21.03;100.00
4392;BME280;2210;51.938;8.488;2023-08-24T21:46:03;99919.72;;;21.02;100.00
4392;BME280;2210;51.938;8.488;2023-08-24T21:50:23;99923.81;;;20.96;100.00
4392;BME280;2210;51.938;8.488;2023-08-24T21:54:24;99921.47;;;20.89;100.00
4392;BME280;2210;51.938;8.488;2023-08-24T21:58:27;99901.31;;;20.79;100.00
4392;BME280;2210;51.938;8.488;2023-08-24T22:02:28;99912.19;;;20.80;100.00
4392;BME280;2210;51.938;8.488;2023-08-24T22:06:28;99921.28;;;20.86;100.00
4392;BME280;2210;51.938;8.488;2023-08-24T22:10:29;99935.63;;;20.84;100.00
4392;BME280;2210;51.938;8.488;2023-08-24T22:14:32;99945.16;;;20.83;100.00
4392;BME280;2210;51.938;8.488;2023-08-24T22:18:36;99953.56;;;20.83;100.00
4392;BME280;2210;51.938;8.488;2023-08-24T22:22:39;99961.03;;;20.88;100.00
4392;BME280;2210;51.938;8.488;2023-08-24T22:26:39;99979.44;;;20.80;100.00
4392;BME280;2210;51.938;8.488;2023-08-24T22:30:40;99987.34;;;20.78;100.00
4392;BME280;2210;51.938;8.488;2023-08-24T22:34:44;99990.91;;;20.70;100.00
4392;BME280;2210;51.938;8.488;2023-08-24T22:38:47;99989.25;;;20.69;100.00
4392;BME280;2210;51.938;8.488;2023-08-24T22:42:57;99991.41;;;20.72;100.00
4392;BME280;2210;51.938;8.488;2023-08-24T22:47:06;99989.13;;;20.74;100.00
4392;BME280;2210;51.938;8.488;2023-08-24T22:51:07;99996.06;;;20.77;100.00
4392;BME280;2210;51.938;8.488;2023-08-24T22:55:09;99989.78;;;20.57;100.00
4392;BME280;2210;51.938;8.488;2023-08-24T22:59:09;99997.81;;;20.50;100.00
4392;BME280;2210;51.938;8.488;2023-08-24T23:03:10;99994.81;;;20.46;100.00
4392;BME280;2210;51.938;8.488;2023-08-24T23:07:11;99996.72;;;20.37;100.00
4392;BME280;2210;51.938;8.488;2023-08-24T23:11:12;99992.91;;;20.33;100.00
4392;BME280;2210;51.938;8.488;2023-08-24T23:15:13;99993.47;;;20.44;100.00
4392;BME280;2210;51.938;8.488;2023-08-24T23:19:22;99991.38;;;20.49;100.00
4392;BME280;2210;51.938;8.488;2023-08-24T23:23:29;100004.75;;;20.52;100.00
4392;BME280;2210;51.938;8.488;2023-08-24T23:27:29;99991.38;;;20.49;100.00
4392;BME280;2210;51.938;8.488;2023-08-24T23:31:29;99984.75;;;20.45;100.00
4392;BME280;2210;51.938;8.488;2023-08-24T23:35:30;99988.69;;;20.44;100.00
4392;BME280;2210;51.938;8.488;2023-08-24T23:39:30;99977.00;;;20.42;100.00
4392;BME280;2210;51.938;8.488;2023-08-24T23:43:31;99967.97;;;20.45;100.00
4392;BME280;2210;51.938;8.488;2023-08-24T23:47:31;99953.59;;;20.38;100.00
4392;BME280;2210;51.938;8.488;2023-08-24T23:51:31;99942.50;;;20.33;100.00
4392;BME280;2210;51.938;8.488;2023-08-24T23:55:50;99940.84;;;20.32;100.00
4392;BME280;2210;51.938;8.488;2023-08-24T23:59:53;99924.00;;;20.46;100.00
